createdAt,value
2016-11-03T00:00:33.209Z,998.56
2016-11-03T00:01:43.182Z,998.56
2016-11-03T00:02:52.852Z,998.53
2016-11-03T00:04:03.126Z,998.5
2016-11-03T00:05:12.852Z,998.53
2016-11-03T00:06:23.161Z,998.52
2016-11-03T00:07:33.134Z,998.59
2016-11-03T00:08:42.800Z,998.53
2016-11-03T00:09:53.088Z,998.54
2016-11-03T00:11:03.078Z,998.52
2016-11-03T00:12:13.053Z,998.53
2016-11-03T00:13:22.758Z,998.52
2016-11-03T00:14:33.057Z,998.52
2016-11-03T00:15:43.046Z,998.49
2016-11-03T00:16:53.016Z,998.53
2016-11-03T00:18:03.347Z,998.56
2016-11-03T00:19:13.331Z,998.58
2016-11-03T00:20:23.314Z,998.48
2016-11-03T00:21:33.612Z,998.52
2016-11-03T00:22:43.903Z,998.53
2016-11-03T00:23:53.573Z,998.62
2016-11-03T00:25:03.876Z,998.72
2016-11-03T00:26:13.234Z,998.62
2016-11-03T00:27:22.899Z,998.6
2016-11-03T00:28:32.585Z,998.58
2016-11-03T00:29:42.591Z,998.62
2016-11-03T00:30:52.559Z,998.52
2016-11-03T00:32:03.093Z,998.58
2016-11-03T00:33:13.128Z,998.58
2016-11-03T00:34:23.415Z,998.57
2016-11-03T00:35:33.703Z,998.54
2016-11-03T00:36:43.997Z,998.57
2016-11-03T00:37:53.966Z,998.61
2016-11-03T00:39:03.647Z,998.56
2016-11-03T00:40:12.999Z,998.6
2016-11-03T00:41:23.290Z,998.61
2016-11-03T00:42:33.266Z,998.63
2016-11-03T00:43:43.257Z,998.65
2016-11-03T00:44:53.586Z,998.67
2016-11-03T00:46:03.876Z,998.67
2016-11-03T00:47:14.198Z,998.66
2016-11-03T00:48:24.166Z,998.67
2016-11-03T00:49:34.441Z,998.69
2016-11-03T00:50:44.415Z,998.69
2016-11-03T00:51:54.473Z,998.67
2016-11-03T00:53:04.781Z,998.62
2016-11-03T00:54:15.120Z,998.64
2016-11-03T00:55:25.627Z,998.63
2016-11-03T00:56:35.608Z,998.6
2016-11-03T00:57:45.883Z,998.68
2016-11-03T00:58:55.566Z,998.6
2016-11-03T01:00:05.849Z,998.58
2016-11-03T01:01:15.504Z,998.61
2016-11-03T01:02:25.790Z,998.56
2016-11-03T01:03:35.816Z,998.59
2016-11-03T01:04:46.100Z,998.6
2016-11-03T01:05:56.407Z,998.66
2016-11-03T01:07:06.427Z,998.58
2016-11-03T01:08:16.732Z,998.61
2016-11-03T01:09:27.033Z,998.58
2016-11-03T01:10:37.309Z,998.54
2016-11-03T01:11:47.603Z,998.54
2016-11-03T01:12:57.890Z,998.57
2016-11-03T01:14:08.183Z,998.58
2016-11-03T01:15:18.161Z,998.56
2016-11-03T01:16:27.578Z,998.63
2016-11-03T01:17:37.552Z,998.56
2016-11-03T01:18:47.535Z,998.54
2016-11-03T01:19:57.506Z,998.54
2016-11-03T01:21:07.499Z,998.49
2016-11-03T01:22:17.181Z,998.52
2016-11-03T01:23:27.156Z,998.52
2016-11-03T01:24:37.163Z,998.48
2016-11-03T01:25:47.444Z,998.45
2016-11-03T01:26:57.123Z,998.48
2016-11-03T01:28:06.789Z,998.47
2016-11-03T01:29:16.767Z,998.38
2016-11-03T01:30:27.048Z,998.45
2016-11-03T01:31:37.022Z,998.39
2016-11-03T01:32:47.305Z,998.38
2016-11-03T01:33:57.336Z,998.26
2016-11-03T01:35:07.621Z,998.3
2016-11-03T01:36:17.610Z,998.3
2016-11-03T01:37:27.596Z,998.21
2016-11-03T01:38:37.879Z,998.21
2016-11-03T01:39:47.849Z,998.13
2016-11-03T01:40:56.887Z,998.18
2016-11-03T01:42:06.849Z,998.16
2016-11-03T01:43:16.829Z,998.16
2016-11-03T01:44:27.132Z,998.15
2016-11-03T01:45:36.838Z,998.1
2016-11-03T01:46:46.815Z,998.06
2016-11-03T01:47:56.787Z,998.03
2016-11-03T01:49:06.139Z,997.98
2016-11-03T01:50:16.424Z,997.96
2016-11-03T01:51:26.937Z,997.93
2016-11-03T01:52:36.654Z,997.94
2016-11-03T01:53:46.945Z,997.91
2016-11-03T01:54:56.957Z,997.86
2016-11-03T01:56:06.627Z,997.83
2016-11-03T01:57:16.936Z,997.85
2016-11-03T01:58:26.912Z,997.78
2016-11-03T01:59:37.220Z,997.8
2016-11-03T02:00:47.505Z,997.85
2016-11-03T02:01:57.181Z,997.82
2016-11-03T02:03:07.144Z,997.81
2016-11-03T02:04:17.433Z,997.78
2016-11-03T02:05:27.428Z,997.78
2016-11-03T02:06:37.099Z,997.78
2016-11-03T02:07:47.075Z,997.76
2016-11-03T02:08:57.057Z,997.82
2016-11-03T02:10:06.768Z,997.8
2016-11-03T02:11:17.051Z,997.76
2016-11-03T02:12:27.088Z,997.79
2016-11-03T02:13:36.749Z,997.86
2016-11-03T02:14:46.430Z,997.77
2016-11-03T02:15:56.403Z,997.78
2016-11-03T02:17:06.083Z,997.81
2016-11-03T02:18:16.056Z,997.85
2016-11-03T02:19:26.037Z,997.9
2016-11-03T02:20:36.308Z,997.91
2016-11-03T02:21:46.588Z,997.87
2016-11-03T02:22:56.865Z,997.89
2016-11-03T02:24:06.850Z,997.93
2016-11-03T02:25:16.952Z,997.89
2016-11-03T02:26:27.231Z,997.96
2016-11-03T02:27:37.521Z,998.01
2016-11-03T02:28:47.810Z,997.88
2016-11-03T02:29:57.787Z,997.83
2016-11-03T02:31:07.759Z,997.85
2016-11-03T02:32:17.141Z,997.87
2016-11-03T02:33:27.412Z,997.82
2016-11-03T02:34:37.734Z,997.91
2016-11-03T02:35:47.716Z,997.88
2016-11-03T02:36:58.001Z,997.87
2016-11-03T02:38:08.298Z,997.94
2016-11-03T02:39:18.571Z,997.95
2016-11-03T02:40:27.932Z,997.94
2016-11-03T02:41:37.953Z,998.03
2016-11-03T02:42:48.236Z,997.97
2016-11-03T02:43:58.517Z,998.08
2016-11-03T02:45:08.177Z,998.05
2016-11-03T02:46:18.456Z,998.11
2016-11-03T02:47:28.742Z,998.06
2016-11-03T02:48:38.723Z,998.14
2016-11-03T02:49:48.992Z,998.1
2016-11-03T02:50:59.277Z,998.1
2016-11-03T02:52:09.259Z,998.11
2016-11-03T02:53:18.921Z,998.14
2016-11-03T02:54:28.281Z,998.11
2016-11-03T02:55:38.561Z,998.09
2016-11-03T02:56:48.522Z,998.1
2016-11-03T02:57:58.499Z,998.14
2016-11-03T02:59:08.785Z,998.12
2016-11-03T03:00:19.085Z,998.16
2016-11-03T03:01:28.763Z,998.14
2016-11-03T03:32:19.747Z,998.47
2016-11-03T03:33:30.039Z,998.47
2016-11-03T03:34:40.321Z,998.53
2016-11-03T03:35:50.600Z,998.5
2016-11-03T03:37:00.603Z,998.54
2016-11-03T03:38:10.891Z,998.56
2016-11-03T03:39:21.173Z,998.49
2016-11-03T03:40:31.163Z,998.51
2016-11-03T03:41:41.484Z,998.52
2016-11-03T03:42:51.770Z,998.52
2016-11-03T03:44:02.069Z,998.53
2016-11-03T03:45:12.378Z,998.59
2016-11-03T03:46:22.038Z,998.6
2016-11-03T03:47:32.050Z,998.61
2016-11-03T03:48:42.331Z,998.65
2016-11-03T03:49:52.319Z,998.65
2016-11-03T03:51:02.604Z,998.6
2016-11-03T03:52:12.896Z,998.59
2016-11-03T03:53:22.882Z,998.65
2016-11-03T03:54:32.884Z,998.64
2016-11-03T03:55:43.175Z,998.63
2016-11-03T03:56:53.149Z,998.65
2016-11-03T03:58:03.439Z,998.66
2016-11-03T03:59:13.725Z,998.72
2016-11-03T04:00:24.049Z,998.67
2016-11-03T04:01:34.034Z,998.7
2016-11-03T04:02:44.346Z,998.66
2016-11-03T04:03:54.321Z,998.62
2016-11-03T04:05:04.300Z,998.61
2016-11-03T04:06:14.272Z,998.61
2016-11-03T04:07:23.971Z,998.64
2016-11-03T04:08:33.626Z,998.62
2016-11-03T04:09:43.290Z,998.52
2016-11-03T04:10:53.268Z,998.55
2016-11-03T04:12:03.288Z,998.65
2016-11-03T04:13:13.562Z,998.57
2016-11-03T04:14:23.842Z,998.59
2016-11-03T04:15:33.833Z,998.63
2016-11-03T04:16:44.126Z,998.61
2016-11-03T04:17:53.802Z,998.64
2016-11-03T04:19:04.091Z,998.6
2016-11-03T04:20:14.113Z,998.58
2016-11-03T04:21:24.389Z,998.59
2016-11-03T04:22:34.356Z,998.6
2016-11-03T04:23:44.647Z,998.52
2016-11-03T04:24:54.313Z,998.63
2016-11-03T04:26:04.286Z,998.6
2016-11-03T04:27:14.571Z,998.52
2016-11-03T04:28:24.563Z,998.61
2016-11-03T04:29:34.865Z,998.59
2016-11-03T04:30:44.865Z,998.59
2016-11-03T04:31:55.164Z,998.64
2016-11-03T04:33:05.445Z,998.63
2016-11-03T04:34:15.421Z,998.65
2016-11-03T04:35:25.700Z,998.59
2016-11-03T04:36:35.987Z,998.62
2016-11-03T04:37:46.031Z,998.63
2016-11-03T04:38:56.299Z,998.65
2016-11-03T04:40:06.004Z,998.65
2016-11-03T04:41:16.287Z,998.71
2016-11-03T04:42:26.585Z,998.68
2016-11-03T04:43:36.866Z,998.72
2016-11-03T04:44:46.851Z,998.64
2016-11-03T04:45:56.817Z,998.74
2016-11-03T04:47:06.490Z,998.7
2016-11-03T04:48:16.452Z,998.69
2016-11-03T04:49:26.415Z,998.73
2016-11-03T04:50:36.700Z,998.75
2016-11-03T04:51:46.991Z,998.72
2016-11-03T04:52:57.279Z,998.82
2016-11-03T04:54:07.552Z,998.76
2016-11-03T04:55:17.840Z,998.81
2016-11-03T04:56:28.145Z,998.77
2016-11-03T04:57:38.436Z,998.78
2016-11-03T04:58:48.726Z,998.8
2016-11-03T04:59:58.699Z,998.76
2016-11-03T05:01:08.102Z,998.76
2016-11-03T05:02:18.072Z,998.77
2016-11-03T05:03:28.064Z,998.8
2016-11-03T05:04:38.057Z,998.83
2016-11-03T05:05:48.028Z,998.79
2016-11-03T05:06:58.314Z,998.81
2016-11-03T05:08:07.972Z,998.79
2016-11-03T05:09:17.646Z,998.84
2016-11-03T05:10:27.629Z,998.86
2016-11-03T05:11:37.613Z,998.84
2016-11-03T05:12:47.642Z,998.89
2016-11-03T05:13:57.299Z,998.92
2016-11-03T05:15:07.599Z,998.91
2016-11-03T05:16:17.577Z,998.89
2016-11-03T05:17:27.859Z,999.01
2016-11-03T05:18:37.531Z,999.01
2016-11-03T05:19:47.862Z,998.91
2016-11-03T05:20:57.534Z,998.97
2016-11-03T05:22:07.499Z,999
2016-11-03T05:23:17.811Z,999.08
2016-11-03T05:24:28.123Z,999.04
2016-11-03T05:25:38.421Z,999.13
2016-11-03T05:26:48.403Z,999.1
2016-11-03T05:27:58.394Z,999.13
2016-11-03T05:29:08.379Z,999.17
2016-11-03T05:30:18.683Z,999.2
2016-11-03T05:31:28.658Z,999.26
2016-11-03T05:32:38.675Z,999.39
2016-11-03T05:33:48.651Z,999.35
2016-11-03T05:34:58.638Z,999.47
2016-11-03T05:36:08.924Z,999.63
2016-11-03T05:37:18.288Z,999.85
2016-11-03T05:38:28.608Z,999.97
2016-11-03T05:39:38.895Z,999.91
2016-11-03T05:40:48.871Z,1000.05
2016-11-03T05:41:58.847Z,1000.03
2016-11-03T05:43:08.830Z,1000.1
2016-11-03T05:44:18.817Z,1000.26
2016-11-03T05:45:29.097Z,1000.35
2016-11-03T05:46:39.070Z,1000.47
2016-11-03T05:47:48.743Z,1000.57
2016-11-03T05:48:58.693Z,1000.48
2016-11-03T05:50:08.371Z,1000.5
2016-11-03T05:51:18.020Z,1000.51
2016-11-03T05:52:27.693Z,1000.66
2016-11-03T05:53:37.675Z,1000.61
2016-11-03T05:54:47.953Z,1000.72
2016-11-03T05:55:58.239Z,1000.8
2016-11-03T05:57:07.919Z,1000.84
2016-11-03T05:58:17.891Z,1000.83
2016-11-03T05:59:27.554Z,1000.92
2016-11-03T06:00:37.866Z,1000.98
2016-11-03T06:01:47.831Z,1001.05
2016-11-03T06:02:57.818Z,1001.09
2016-11-03T06:04:08.097Z,1001.17
2016-11-03T06:05:18.382Z,1001.15
2016-11-03T06:06:28.669Z,1001.12
2016-11-03T06:07:38.955Z,1001.14
2016-11-03T06:08:48.967Z,1001.15
2016-11-03T06:09:58.919Z,1001.09
2016-11-03T06:11:08.888Z,1001.08
2016-11-03T06:12:17.923Z,1001.16
2016-11-03T06:13:27.583Z,1001.16
2016-11-03T06:14:37.574Z,1001.19
2016-11-03T06:15:47.542Z,1001.23
2016-11-03T06:16:57.209Z,1001.21
2016-11-03T06:18:07.500Z,1001.28
2016-11-03T06:19:17.162Z,1001.32
2016-11-03T06:20:26.824Z,1001.36
2016-11-03T06:21:37.106Z,1001.36
2016-11-03T06:22:47.088Z,1001.4
2016-11-03T06:23:57.056Z,1001.46
2016-11-03T06:25:07.336Z,1001.42
2016-11-03T06:26:17.657Z,1001.43
2016-11-03T06:27:27.934Z,1001.32
2016-11-03T06:28:37.650Z,1001.37
2016-11-03T06:29:47.949Z,1001.4
2016-11-03T06:30:57.929Z,1001.39
2016-11-03T06:32:07.900Z,1001.35
2016-11-03T06:33:18.168Z,1001.4
2016-11-03T06:34:28.133Z,1001.41
2016-11-03T06:35:38.105Z,1001.44
2016-11-03T06:36:48.089Z,1001.48
2016-11-03T06:37:57.768Z,1001.42
2016-11-03T06:39:07.734Z,1001.46
2016-11-03T06:40:17.722Z,1001.52
2016-11-03T06:41:28.023Z,1001.51
2016-11-03T06:42:38.001Z,1001.52
2016-11-03T06:43:48.287Z,1001.56
2016-11-03T06:44:58.284Z,1001.56
2016-11-03T06:46:08.571Z,1001.66
2016-11-03T06:47:18.848Z,1001.66
2016-11-03T06:48:29.129Z,1001.6
2016-11-03T06:49:39.116Z,1001.64
2016-11-03T06:50:49.442Z,1001.62
2016-11-03T06:51:59.745Z,1001.66
2016-11-03T06:53:09.726Z,1001.6
2016-11-03T06:54:19.703Z,1001.63
2016-11-03T06:55:29.364Z,1001.7
2016-11-03T06:56:39.075Z,1001.71
2016-11-03T06:57:49.357Z,1001.7
2016-11-03T06:58:59.004Z,1001.78
2016-11-03T07:00:08.683Z,1001.78
2016-11-03T07:01:18.993Z,1001.73
2016-11-03T07:02:28.974Z,1001.71
2016-11-03T07:03:39.275Z,1001.71
2016-11-03T07:04:49.571Z,1001.7
2016-11-03T07:05:59.564Z,1001.71
2016-11-03T07:07:09.536Z,1001.72
2016-11-03T07:08:19.219Z,1001.72
2016-11-03T07:09:29.534Z,1001.7
2016-11-03T07:10:39.826Z,1001.79
2016-11-03T07:11:49.792Z,1001.79
2016-11-03T07:12:59.769Z,1001.81
2016-11-03T07:14:09.747Z,1001.81
2016-11-03T07:15:20.071Z,1001.87
2016-11-03T07:16:30.367Z,1001.87
2016-11-03T07:17:40.700Z,1001.87
2016-11-03T07:18:50.997Z,1001.94
2016-11-03T07:20:01.306Z,1001.9
2016-11-03T07:21:11.636Z,1001.91
2016-11-03T07:22:21.612Z,1001.96
2016-11-03T07:23:31.299Z,1001.97
2016-11-03T07:24:41.628Z,1001.91
2016-11-03T07:25:52.048Z,1001.95
2016-11-03T07:27:02.318Z,1001.99
2016-11-03T07:28:11.976Z,1001.93
2016-11-03T07:29:21.941Z,1001.94
2016-11-03T07:30:31.912Z,1001.95
2016-11-03T07:31:41.889Z,1001.95
2016-11-03T07:32:52.182Z,1001.97
2016-11-03T07:34:02.456Z,1002.01
2016-11-03T07:35:12.444Z,1002
2016-11-03T07:36:22.741Z,1002
2016-11-03T07:37:32.722Z,1001.98
2016-11-03T07:38:42.717Z,1001.98
2016-11-03T07:39:52.386Z,1002.04
2016-11-03T07:41:02.662Z,1002
2016-11-03T07:42:12.636Z,1002.03
2016-11-03T07:43:22.924Z,1002.03
2016-11-03T07:44:33.206Z,1002.05
2016-11-03T07:45:43.231Z,1002.05
2016-11-03T07:46:53.524Z,1002.05
2016-11-03T07:48:03.810Z,1002.07
2016-11-03T07:49:13.801Z,1002.09
2016-11-03T07:50:23.782Z,1002.14
2016-11-03T07:51:33.754Z,1002.14
2016-11-03T07:52:44.067Z,1002.18
2016-11-03T07:53:54.342Z,1002.17
2016-11-03T07:55:04.003Z,1002.18
2016-11-03T07:56:14.288Z,1002.24
2016-11-03T07:57:24.590Z,1002.22
2016-11-03T07:58:34.565Z,1002.19
2016-11-03T07:59:44.542Z,1002.23
2016-11-03T08:00:54.857Z,1002.26
2016-11-03T08:02:05.169Z,1002.29
2016-11-03T08:03:15.254Z,1002.31
2016-11-03T08:04:25.226Z,1002.32
2016-11-03T08:05:35.542Z,1002.27
2016-11-03T08:06:45.830Z,1002.31
2016-11-03T08:07:55.495Z,1002.34
2016-11-03T08:09:05.452Z,1002.35
2016-11-03T08:10:15.743Z,1002.31
2016-11-03T08:11:26.023Z,1002.35
2016-11-03T08:12:35.701Z,1002.37
2016-11-03T08:13:46.029Z,1002.38
2016-11-03T08:14:55.998Z,1002.42
2016-11-03T08:16:05.665Z,1002.46
2016-11-03T08:17:16.047Z,1002.49
2016-11-03T08:18:26.015Z,1002.46
2016-11-03T08:19:36.001Z,1002.5
2016-11-03T08:20:46.286Z,1002.5
2016-11-03T08:21:56.564Z,1002.48
2016-11-03T08:23:06.843Z,1002.5
2016-11-03T08:24:16.812Z,1002.47
2016-11-03T08:25:26.793Z,1002.45
2016-11-03T08:26:37.072Z,1002.51
2016-11-03T08:27:47.056Z,1002.45
2016-11-03T08:28:57.343Z,1002.51
2016-11-03T08:30:07.631Z,1002.52
2016-11-03T08:31:17.914Z,1002.53
2016-11-03T08:32:27.897Z,1002.55
2016-11-03T08:33:37.873Z,1002.49
2016-11-03T08:34:47.846Z,1002.52
2016-11-03T08:35:57.827Z,1002.55
2016-11-03T08:37:08.114Z,1002.6
2016-11-03T08:38:18.387Z,1002.6
2016-11-03T08:39:28.662Z,1002.62
2016-11-03T08:40:38.943Z,1002.64
2016-11-03T08:41:49.218Z,1002.63
2016-11-03T08:42:59.508Z,1002.63
2016-11-03T08:44:09.794Z,1002.63
2016-11-03T08:45:20.087Z,1002.7
2016-11-03T08:46:30.416Z,1002.63
2016-11-03T08:47:40.693Z,1002.68
2016-11-03T08:48:50.365Z,1002.69
2016-11-03T08:50:00.362Z,1002.76
2016-11-03T08:51:10.648Z,1002.72
2016-11-03T08:52:20.630Z,1002.71
2016-11-03T08:53:30.916Z,1002.72
2016-11-03T08:54:40.899Z,1002.72
2016-11-03T08:55:51.237Z,1002.79
2016-11-03T08:57:01.230Z,1002.8
2016-11-03T08:58:11.518Z,1002.75
2016-11-03T08:59:21.497Z,1002.84
2016-11-03T09:00:31.782Z,1002.76
2016-11-03T09:01:42.075Z,1002.85
2016-11-03T09:02:52.366Z,1002.91
2016-11-03T09:04:02.046Z,1002.92
2016-11-03T09:05:12.334Z,1002.96
2016-11-03T09:06:22.609Z,1002.94
2016-11-03T09:07:32.602Z,1003.01
2016-11-03T09:08:42.884Z,1003.03
2016-11-03T09:09:53.160Z,1003.02
2016-11-03T09:11:03.151Z,1003.04
2016-11-03T09:12:13.488Z,1003.06
2016-11-03T09:13:23.775Z,1003.12
2016-11-03T09:14:34.066Z,1003.11
2016-11-03T09:15:44.033Z,1003.1
2016-11-03T09:16:54.334Z,1003.1
2016-11-03T09:18:04.641Z,1003.13
2016-11-03T09:19:14.922Z,1003.08
2016-11-03T09:20:25.219Z,1003.06
2016-11-03T09:21:35.508Z,1003.1
2016-11-03T09:22:45.857Z,1003.09
2016-11-03T09:23:56.134Z,1003.12
2016-11-03T09:25:06.150Z,1003.05
2016-11-03T09:26:15.812Z,1003.1
2016-11-03T09:27:25.803Z,1003.07
2016-11-03T09:28:36.085Z,1003.03
2016-11-03T09:29:46.062Z,1003.14
2016-11-03T09:30:56.401Z,1003.12
2016-11-03T09:32:06.692Z,1003.15
2016-11-03T09:33:16.996Z,1003.14
2016-11-03T09:34:27.219Z,1003.1
2016-11-03T09:35:37.195Z,1003.1
2016-11-03T09:36:47.173Z,1003.09
2016-11-03T09:37:57.467Z,1003.05
2016-11-03T09:39:07.760Z,1003.09
2016-11-03T09:40:18.066Z,1003.13
2016-11-03T09:41:28.339Z,1003.12
2016-11-03T09:42:38.315Z,1003.08
2016-11-03T09:43:48.607Z,1003.15
2016-11-03T09:44:58.902Z,1003.09
2016-11-03T09:46:09.186Z,1003.11
2016-11-03T09:47:19.165Z,1003.15
2016-11-03T09:48:29.168Z,1003.08
2016-11-03T09:49:39.152Z,1003.14
2016-11-03T09:50:49.433Z,1003.16
2016-11-03T09:51:59.418Z,1003.11
2016-11-03T09:53:09.400Z,1003.06
2016-11-03T09:54:19.409Z,1003.17
2016-11-03T09:55:29.703Z,1003.15
2016-11-03T09:56:39.991Z,1003.18
2016-11-03T09:57:49.969Z,1003.15
2016-11-03T09:59:00.248Z,1003.12
2016-11-03T10:00:10.230Z,1003.11
2016-11-03T10:01:20.568Z,1003.13
2016-11-03T10:02:30.890Z,1003.1
2016-11-03T10:03:40.888Z,1003.12
2016-11-03T10:04:51.215Z,1003.01
2016-11-03T10:06:01.508Z,1003.01
2016-11-03T10:07:11.788Z,1003.07
2016-11-03T10:08:22.058Z,1003.05
2016-11-03T10:09:35.537Z,1003.05
2016-11-03T10:10:45.949Z,1003.03
2016-11-03T10:11:56.107Z,1003.03
2016-11-03T10:13:06.104Z,1003.09
2016-11-03T10:14:16.350Z,1003.05
2016-11-03T10:15:26.852Z,1003.06
2016-11-03T10:16:37.214Z,1003.03
2016-11-03T10:17:47.557Z,1003.03
2016-11-03T10:18:58.034Z,1003.07
2016-11-03T10:20:08.023Z,1003.04
2016-11-03T10:21:18.361Z,1002.93
2016-11-03T10:22:28.702Z,1002.93
2016-11-03T10:23:39.082Z,1003.03
2016-11-03T10:24:49.142Z,1002.95
2016-11-03T10:25:59.562Z,1003.04
2016-11-03T10:27:10.263Z,1002.96
2016-11-03T10:28:20.596Z,1002.79
2016-11-03T10:29:30.993Z,1002.94
2016-11-03T10:30:41.473Z,1002.94
2016-11-03T10:31:51.868Z,1002.93
2016-11-03T10:33:02.229Z,1002.98
2016-11-03T10:34:11.970Z,1002.93
2016-11-03T10:35:22.657Z,1002.9
2016-11-03T10:36:33.054Z,1002.93
2016-11-03T10:37:43.396Z,1002.95
2016-11-03T10:38:53.444Z,1002.92
2016-11-03T10:40:03.831Z,1002.92
2016-11-03T10:41:14.095Z,1002.81
2016-11-03T10:42:24.420Z,1002.91
2016-11-03T10:43:34.764Z,1002.88
2016-11-03T10:44:44.824Z,1002.77
2016-11-03T10:45:55.120Z,1002.9
2016-11-03T10:47:05.481Z,1002.84
2016-11-03T10:48:15.800Z,1002.88
2016-11-03T10:49:26.148Z,1002.99
2016-11-03T10:50:36.483Z,1003.01
2016-11-03T10:51:46.844Z,1002.89
2016-11-03T10:52:57.172Z,1002.87
2016-11-03T10:54:07.490Z,1002.91
2016-11-03T10:55:17.812Z,1002.9
2016-11-03T10:56:28.118Z,1002.96
2016-11-03T10:57:38.419Z,1002.94
2016-11-03T10:58:48.724Z,1002.87
2016-11-03T10:59:59.040Z,1002.86
2016-11-03T11:01:09.027Z,1002.83
2016-11-03T11:02:19.352Z,1002.82
2016-11-03T11:03:29.656Z,1002.83
2016-11-03T11:04:39.961Z,1002.87
2016-11-03T11:05:49.946Z,1002.88
2016-11-03T11:06:59.955Z,1002.81
2016-11-03T11:08:10.278Z,1002.94
2016-11-03T11:09:20.284Z,1002.86
2016-11-03T11:10:30.582Z,1002.79
2016-11-03T11:11:40.599Z,1002.85
2016-11-03T11:12:50.584Z,1002.9
2016-11-03T11:14:00.589Z,1002.83
2016-11-03T11:15:10.616Z,1002.83
2016-11-03T11:16:20.925Z,1002.85
2016-11-03T11:17:31.227Z,1002.89
2016-11-03T11:18:41.537Z,1002.87
2016-11-03T11:19:51.535Z,1002.83
2016-11-03T11:21:01.835Z,1002.8
2016-11-03T11:22:12.151Z,1002.89
2016-11-03T11:23:22.466Z,1002.82
2016-11-03T11:24:32.854Z,1002.92
2016-11-03T11:25:42.605Z,1002.9
2016-11-03T11:26:52.913Z,1002.85
2016-11-03T11:28:02.979Z,1002.81
2016-11-03T11:29:13.357Z,1002.85
2016-11-03T11:30:23.685Z,1002.81
2016-11-03T11:31:33.717Z,1002.8
2016-11-03T11:32:43.721Z,1002.87
2016-11-03T11:33:53.724Z,1002.8
2016-11-03T11:35:04.078Z,1002.82
2016-11-03T11:36:14.410Z,1002.87
2016-11-03T11:37:24.726Z,1002.78
2016-11-03T11:38:34.712Z,1002.84
2016-11-03T11:39:45.012Z,1002.78
2016-11-03T11:40:55.338Z,1002.85
2016-11-03T11:42:05.655Z,1002.78
2016-11-03T11:43:15.941Z,1002.81
2016-11-03T11:44:25.949Z,1002.88
2016-11-03T11:45:36.278Z,1002.78
2016-11-03T11:46:46.281Z,1002.77
2016-11-03T11:47:56.579Z,1002.79
2016-11-03T11:49:06.904Z,1002.76
2016-11-03T11:50:17.228Z,1002.77
2016-11-03T11:51:27.212Z,1002.73
2016-11-03T11:52:37.209Z,1002.73
2016-11-03T11:53:47.517Z,1002.67
2016-11-03T11:54:57.822Z,1002.67
2016-11-03T11:56:07.826Z,1002.8
2016-11-03T11:57:18.170Z,1002.76
2016-11-03T11:58:28.171Z,1002.69
2016-11-03T11:59:38.474Z,1002.71
2016-11-03T12:00:48.500Z,1002.7
2016-11-03T12:01:58.841Z,1002.77
2016-11-03T12:03:09.144Z,1002.74
2016-11-03T12:04:19.474Z,1002.7
2016-11-03T12:05:29.789Z,1002.76
2016-11-03T12:06:39.837Z,1002.68
2016-11-03T12:07:50.144Z,1002.75
2016-11-03T12:09:00.459Z,1002.69
2016-11-03T12:10:10.167Z,1002.71
2016-11-03T12:11:20.457Z,1002.7
2016-11-03T12:12:30.768Z,1002.75
2016-11-03T12:13:40.449Z,1002.7
2016-11-03T12:14:50.753Z,1002.68
2016-11-03T12:16:00.754Z,1002.71
2016-11-03T12:17:11.072Z,1002.75
2016-11-03T12:18:21.066Z,1002.73
2016-11-03T12:19:31.076Z,1002.67
2016-11-03T12:20:41.418Z,1002.68
2016-11-03T12:21:51.411Z,1002.73
2016-11-03T12:23:01.718Z,1002.68
2016-11-03T12:24:11.404Z,1002.66
2016-11-03T12:25:21.393Z,1002.68
2016-11-03T12:26:31.399Z,1002.68
2016-11-03T12:27:41.692Z,1002.7
2016-11-03T12:28:51.382Z,1002.71
2016-11-03T12:30:01.431Z,1002.78
2016-11-03T12:31:11.470Z,1002.77
2016-11-03T12:32:21.792Z,1002.74
2016-11-03T12:33:32.090Z,1002.72
2016-11-03T12:34:41.814Z,1002.71
2016-11-03T12:35:52.156Z,1002.68
2016-11-03T12:37:01.549Z,1002.69
2016-11-03T12:38:11.842Z,1002.59
2016-11-03T12:39:21.834Z,1002.7
2016-11-03T12:40:31.817Z,1002.64
2016-11-03T12:41:41.801Z,1002.78
2016-11-03T12:42:52.087Z,1002.69
2016-11-03T12:44:02.400Z,1002.71
2016-11-03T12:45:12.382Z,1002.63
2016-11-03T12:46:22.370Z,1002.63
2016-11-03T12:47:32.678Z,1002.64
2016-11-03T12:48:42.977Z,1002.67
2016-11-03T12:49:53.264Z,1002.62
2016-11-03T12:51:02.958Z,1002.6
2016-11-03T12:52:13.265Z,1002.62
2016-11-03T12:53:23.004Z,1002.66
2016-11-03T12:54:33.348Z,1002.59
2016-11-03T12:55:43.668Z,1002.58
2016-11-03T12:56:53.975Z,1002.6
2016-11-03T12:58:04.267Z,1002.61
2016-11-03T12:59:14.578Z,1002.67
2016-11-03T13:00:24.899Z,1002.67
2016-11-03T13:01:35.205Z,1002.67
2016-11-03T13:02:45.557Z,1002.64
2016-11-03T13:03:55.564Z,1002.7
2016-11-03T13:05:05.548Z,1002.63
2016-11-03T13:06:15.547Z,1002.72
2016-11-03T13:07:25.845Z,1002.65
2016-11-03T13:08:36.127Z,1002.65
2016-11-03T13:09:44.882Z,1002.72
2016-11-03T13:10:55.175Z,1002.71
2016-11-03T13:12:05.165Z,1002.7
2016-11-03T13:13:15.185Z,1002.76
2016-11-03T13:14:24.878Z,1002.75
2016-11-03T13:15:35.195Z,1002.79
2016-11-03T13:16:45.498Z,1002.91
2016-11-03T13:17:55.805Z,1002.84
2016-11-03T13:19:06.106Z,1002.91
2016-11-03T13:20:16.095Z,1002.9
2016-11-03T13:21:26.333Z,1002.86
2016-11-03T13:22:36.384Z,1002.84
2016-11-03T13:23:45.759Z,1002.84
2016-11-03T13:24:55.739Z,1002.83
2016-11-03T13:26:05.715Z,1002.85
2016-11-03T13:27:15.709Z,1002.81
2016-11-03T13:28:25.685Z,1002.85
2016-11-03T13:29:36.022Z,1002.85
2016-11-03T13:30:46.340Z,1002.84
2016-11-03T13:31:56.323Z,1002.87
2016-11-03T13:33:06.322Z,1002.85
2016-11-03T13:34:16.308Z,1002.77
2016-11-03T13:35:26.620Z,1002.83
2016-11-03T13:36:36.940Z,1002.84
2016-11-03T13:37:47.234Z,1002.82
2016-11-03T13:38:57.237Z,1002.84
2016-11-03T13:40:07.533Z,1002.8
2016-11-03T13:41:17.535Z,1002.85
2016-11-03T13:42:27.538Z,1002.88
2016-11-03T13:43:37.553Z,1002.87
2016-11-03T13:44:47.845Z,1002.9
2016-11-03T13:45:57.212Z,1002.91
2016-11-03T13:47:07.511Z,1002.94
2016-11-03T13:48:17.813Z,1002.93
2016-11-03T13:49:28.137Z,1002.93
2016-11-03T13:50:38.138Z,1002.97
2016-11-03T13:51:48.455Z,1003.03
2016-11-03T13:52:58.150Z,1002.99
2016-11-03T13:54:08.446Z,1003.03
2016-11-03T13:55:18.814Z,1003
2016-11-03T13:56:29.116Z,1002.98
2016-11-03T13:57:39.458Z,1002.96
2016-11-03T13:58:49.446Z,1003
2016-11-03T13:59:59.447Z,1002.98
2016-11-03T14:01:09.129Z,1003
2016-11-03T14:02:19.434Z,1003.01
2016-11-03T14:03:29.751Z,1003.02
2016-11-03T14:04:39.457Z,1003.01
2016-11-03T14:05:49.464Z,1003.01
2016-11-03T14:06:59.156Z,1003.01
2016-11-03T14:08:09.500Z,1003.06
2016-11-03T14:09:19.498Z,1003.01
2016-11-03T14:10:29.501Z,1003.01
2016-11-03T14:11:39.843Z,1003.03
2016-11-03T14:12:49.853Z,1003.03
2016-11-03T14:13:59.827Z,1003.09
2016-11-03T14:15:09.819Z,1003.08
2016-11-03T14:16:19.849Z,1003.12
2016-11-03T14:17:29.845Z,1003.12
2016-11-03T14:18:39.858Z,1003.11
2016-11-03T14:19:49.875Z,1003.06
2016-11-03T14:21:00.188Z,1003.08
2016-11-03T14:22:10.502Z,1003.04
2016-11-03T14:23:20.503Z,1003.05
2016-11-03T14:24:30.808Z,1003.06
2016-11-03T14:25:41.132Z,1003.06
2016-11-03T14:26:51.137Z,1003.11
2016-11-03T14:28:01.429Z,1003.1
2016-11-03T14:29:11.426Z,1003.12
2016-11-03T14:30:21.718Z,1003.14
2016-11-03T14:31:32.011Z,1003.18
2016-11-03T14:32:42.313Z,1003.2
2016-11-03T14:33:52.610Z,1003.2
2016-11-03T14:35:02.909Z,1003.22
2016-11-03T14:36:12.583Z,1003.19
2016-11-03T14:37:22.871Z,1003.24
2016-11-03T14:38:32.866Z,1003.21
2016-11-03T14:39:42.547Z,1003.26
2016-11-03T14:40:51.910Z,1003.28
2016-11-03T14:42:01.932Z,1003.26
2016-11-03T14:43:12.564Z,1003.29
2016-11-03T14:44:22.603Z,1003.29
2016-11-03T14:45:32.635Z,1003.27
2016-11-03T14:46:42.665Z,1003.22
2016-11-03T14:47:53.035Z,1003.3
2016-11-03T14:49:03.050Z,1003.32
2016-11-03T14:50:13.382Z,1003.3